Time;durP1;ratioP1;P1;durP2;ratioP2;P2;SDS_P1;SDS_P2;PMS_P1;PMS_P2;Temp;Humidity;BMP_temperature;BMP_pressure;BME280_temperature;BME280_humidity;BME280_pressure;Samples;Min_cycle;Max_cycle;Signal;HPM_P1;HPM_P2
2023/05/20 00:01:31;;;;;;;4.70;1.87;;;19.60;72.90;;;;;;6306271;22;20166;-84
2023/05/20 00:04:00;;;;;;;1.03;0.93;;;19.60;72.90;;;;;;6301946;22;20176;-82
2023/05/20 00:06:29;;;;;;;2.80;1.17;;;19.50;73.30;;;;;;6306644;22;20172;-84
2023/05/20 00:08:58;;;;;;;1.37;0.90;;;19.50;73.80;;;;;;6305477;22;20165;-83
2023/05/20 00:11:27;;;;;;;2.13;1.33;;;19.50;74.10;;;;;;6305319;22;20237;-82
2023/05/20 00:13:56;;;;;;;3.37;2.03;;;19.50;74.40;;;;;;6302746;22;20571;-83
2023/05/20 00:16:25;;;;;;;3.10;1.33;;;19.40;75.00;;;;;;6303997;22;20227;-84
2023/05/20 00:18:55;;;;;;;3.17;1.13;;;19.40;74.80;;;;;;6304973;22;20605;-83
2023/05/20 00:21:24;;;;;;;2.97;1.40;;;19.40;75.50;;;;;;6306239;22;20196;-82
2023/05/20 00:23:52;;;;;;;1.20;0.70;;;19.30;75.30;;;;;;6305946;22;20169;-82
2023/05/20 00:26:21;;;;;;;2.50;1.97;;;19.30;75.40;;;;;;6305817;22;20221;-82
2023/05/20 00:28:49;;;;;;;2.13;1.47;;;19.30;75.40;;;;;;6304229;22;20610;-83
2023/05/20 00:31:18;;;;;;;1.63;1.17;;;19.30;75.50;;;;;;6304650;22;20169;-83
2023/05/20 00:33:47;;;;;;;1.10;1.00;;;19.30;75.40;;;;;;6304214;22;20224;-85
2023/05/20 00:36:16;;;;;;;2.40;1.37;;;19.30;75.60;;;;;;6305386;22;20169;-83
2023/05/20 00:38:44;;;;;;;0.73;0.73;;;19.30;75.50;;;;;;6303798;22;20169;-83
2023/05/20 00:41:13;;;;;;;1.20;1.10;;;19.30;75.40;;;;;;6305014;22;20204;-83
2023/05/20 00:43:41;;;;;;;0.73;0.40;;;19.30;75.20;;;;;;6303911;22;20680;-84
2023/05/20 00:46:10;;;;;;;1.33;0.97;;;19.30;75.20;;;;;;6303834;22;20169;-84
2023/05/20 00:48:42;;;;;;;4.70;1.83;;;19.30;75.50;;;;;;6303349;22;20685;-84
2023/05/20 00:51:13;;;;;;;2.63;1.80;;;19.30;75.40;;;;;;6303777;22;20164;-82
2023/05/20 00:53:42;;;;;;;1.07;0.90;;;19.30;75.50;;;;;;6304288;22;20177;-83
2023/05/20 00:56:10;;;;;;;1.77;1.20;;;19.30;75.50;;;;;;6304062;22;20165;-82
2023/05/20 00:58:39;;;;;;;1.30;1.00;;;19.30;75.30;;;;;;6304364;22;20189;-82
2023/05/20 01:01:08;;;;;;;1.53;0.87;;;19.30;75.30;;;;;;6303390;22;20200;-82
2023/05/20 01:03:36;;;;;;;2.00;0.93;;;19.30;75.10;;;;;;6304837;22;20201;-82
2023/05/20 01:06:05;;;;;;;1.00;0.70;;;19.30;75.10;;;;;;6302633;22;20554;-82
2023/05/20 01:08:35;;;;;;;1.50;1.40;;;19.30;75.20;;;;;;6304882;22;20169;-83
2023/05/20 01:11:08;;;;;;;2.93;1.50;;;19.30;75.40;;;;;;6305440;22;20164;-83
2023/05/20 01:13:43;;;;;;;1.27;0.77;;;19.30;75.40;;;;;;6303280;22;20188;-83
2023/05/20 01:16:14;;;;;;;2.10;1.80;;;19.30;75.40;;;;;;6303755;22;20152;-84
2023/05/20 01:18:44;;;;;;;3.03;1.30;;;19.30;76.00;;;;;;6304177;22;20176;-84
2023/05/20 01:21:14;;;;;;;2.00;1.37;;;19.30;76.10;;;;;;6303999;22;20246;-82
2023/05/20 01:23:45;;;;;;;0.60;0.60;;;19.30;75.80;;;;;;6301033;22;20165;-84
2023/05/20 01:26:15;;;;;;;1.53;1.13;;;19.30;75.80;;;;;;6304721;22;20159;-83
2023/05/20 01:28:43;;;;;;;1.97;1.43;;;19.30;75.70;;;;;;6303249;22;20165;-82
2023/05/20 01:31:18;;;;;;;2.07;1.70;;;19.30;76.10;;;;;;6304954;22;20622;-83
2023/05/20 01:33:52;;;;;;;1.70;1.13;;;19.30;75.80;;;;;;6302837;22;20614;-83
2023/05/20 01:36:22;;;;;;;1.63;1.23;;;19.30;76.00;;;;;;6305977;22;20160;-82
2023/05/20 01:38:53;;;;;;;0.57;0.57;;;19.30;75.70;;;;;;6303381;22;20169;-81
2023/05/20 01:41:23;;;;;;;1.50;1.07;;;19.30;75.70;;;;;;6306082;22;20503;-82
2023/05/20 01:43:52;;;;;;;0.93;0.87;;;19.30;75.80;;;;;;6303708;22;20547;-84
2023/05/20 01:46:20;;;;;;;0.93;0.87;;;19.30;75.70;;;;;;6304849;22;20169;-84
2023/05/20 01:48:49;;;;;;;0.90;0.70;;;19.30;75.60;;;;;;6302731;22;20235;-83
2023/05/20 01:51:17;;;;;;;1.40;1.27;;;19.30;75.80;;;;;;6304857;22;20173;-83
2023/05/20 01:53:46;;;;;;;2.10;0.93;;;19.20;75.60;;;;;;6301332;22;20161;-84
2023/05/20 01:56:18;;;;;;;1.33;1.17;;;19.20;75.60;;;;;;6303884;22;20644;-83
2023/05/20 01:58:46;;;;;;;0.50;0.50;;;19.20;75.50;;;;;;6302262;22;20195;-84
2023/05/20 02:01:15;;;;;;;0.50;0.50;;;19.20;75.40;;;;;;6303391;22;20208;-84
2023/05/20 02:03:45;;;;;;;2.73;0.87;;;19.20;75.30;;;;;;6303460;22;20185;-82
2023/05/20 02:06:14;;;;;;;0.57;0.57;;;19.20;75.30;;;;;;6305191;22;20244;-82
2023/05/20 02:08:42;;;;;;;0.60;0.60;;;19.20;75.30;;;;;;6304263;22;20244;-82
2023/05/20 02:11:11;;;;;;;1.40;0.80;;;19.20;75.30;;;;;;6302471;22;20165;-82
2023/05/20 02:13:40;;;;;;;1.43;1.33;;;19.20;75.40;;;;;;6301682;22;20172;-82
2023/05/20 02:16:09;;;;;;;2.47;1.17;;;19.20;75.30;;;;;;6303449;22;20169;-82
2023/05/20 02:18:37;;;;;;;1.10;1.00;;;19.20;75.20;;;;;;6304283;22;20165;-82
2023/05/20 02:21:06;;;;;;;1.13;1.03;;;19.20;75.20;;;;;;6304100;22;20594;-84
2023/05/20 02:23:35;;;;;;;1.97;1.60;;;19.10;75.20;;;;;;6303381;22;20173;-84
2023/05/20 02:26:03;;;;;;;1.70;1.13;;;19.10;75.50;;;;;;6305820;22;20162;-83
2023/05/20 02:28:32;;;;;;;1.07;0.87;;;19.10;75.40;;;;;;6304267;22;20184;-84
2023/05/20 02:31:02;;;;;;;3.30;1.67;;;19.00;75.30;;;;;;6301678;22;20169;-82
2023/05/20 02:33:30;;;;;;;1.53;1.43;;;19.10;75.50;;;;;;6304446;22;20491;-83
2023/05/20 02:35:58;;;;;;;1.00;0.90;;;19.00;75.50;;;;;;6303972;22;20679;-82
2023/05/20 02:38:27;;;;;;;1.57;1.20;;;19.00;75.50;;;;;;6304559;22;20169;-84
2023/05/20 02:40:57;;;;;;;2.00;0.90;;;19.00;75.50;;;;;;6301780;22;20677;-82
2023/05/20 02:43:26;;;;;;;1.80;0.73;;;19.00;75.60;;;;;;6303163;22;20175;-83
2023/05/20 02:45:54;;;;;;;2.57;1.53;;;18.90;75.50;;;;;;6303825;22;20165;-83
2023/05/20 02:48:26;;;;;;;1.13;0.67;;;18.90;75.80;;;;;;6302949;22;20169;-84
2023/05/20 02:50:55;;;;;;;0.43;0.40;;;18.90;75.80;;;;;;6301126;22;20614;-83
2023/05/20 02:53:24;;;;;;;1.60;1.00;;;18.90;76.00;;;;;;6303550;22;20169;-83
2023/05/20 02:55:53;;;;;;;0.93;0.80;;;18.80;76.00;;;;;;6301251;22;20689;-84
2023/05/20 02:58:25;;;;;;;1.30;0.80;;;18.80;76.10;;;;;;6301633;22;20195;-84
2023/05/20 03:00:53;;;;;;;16.43;1.07;;;18.80;76.20;;;;;;6302454;22;20189;-82
2023/05/20 03:03:21;;;;;;;0.60;0.53;;;18.70;76.20;;;;;;6300900;22;20168;-82
2023/05/20 03:05:51;;;;;;;0.50;0.50;;;18.70;76.30;;;;;;6303758;22;20165;-84
2023/05/20 03:08:21;;;;;;;1.20;1.10;;;18.70;76.30;;;;;;6303132;22;20165;-83
2023/05/20 03:10:50;;;;;;;0.87;0.70;;;18.70;76.60;;;;;;6302155;22;20169;-82
2023/05/20 03:13:18;;;;;;;1.07;0.97;;;18.60;76.60;;;;;;6301580;22;20196;-82
2023/05/20 03:15:47;;;;;;;0.90;0.83;;;18.60;76.90;;;;;;6304446;22;20161;-84
2023/05/20 03:18:15;;;;;;;1.70;1.60;;;18.60;77.00;;;;;;6301515;22;20169;-82
2023/05/20 03:20:43;;;;;;;1.15;0.95;;;18.60;77.10;;;;;;6303273;22;20203;-83
2023/05/20 03:23:14;;;;;;;3.63;0.93;;;18.50;77.20;;;;;;6304036;22;20878;-84
2023/05/20 03:25:42;;;;;;;0.87;0.73;;;18.50;77.20;;;;;;6303100;22;20166;-83
2023/05/20 03:28:10;;;;;;;1.03;0.80;;;18.50;77.20;;;;;;6299246;22;20629;-82
2023/05/20 03:30:39;;;;;;;0.93;0.80;;;18.50;77.30;;;;;;6303033;22;20169;-83
2023/05/20 03:33:07;;;;;;;2.73;1.23;;;18.50;77.40;;;;;;6303008;22;20171;-82
2023/05/20 03:35:35;;;;;;;1.60;0.90;;;18.50;78.10;;;;;;6306602;22;20172;-83
2023/05/20 03:38:04;;;;;;;0.83;0.73;;;18.50;78.10;;;;;;6304271;22;20165;-83
2023/05/20 03:40:34;;;;;;;2.87;1.73;;;18.50;78.10;;;;;;6306092;22;20169;-82
2023/05/20 03:43:02;;;;;;;1.70;1.13;;;18.50;78.10;;;;;;6303433;22;20232;-82
2023/05/20 03:45:32;;;;;;;2.73;1.37;;;18.50;78.10;;;;;;6305657;22;20168;-82
2023/05/20 03:48:02;;;;;;;1.67;1.10;;;18.50;78.10;;;;;;6304537;22;20153;-82
2023/05/20 03:50:31;;;;;;;2.50;2.00;;;18.50;78.20;;;;;;6305627;22;20547;-82
2023/05/20 03:53:00;;;;;;;0.50;0.50;;;18.50;78.40;;;;;;6303975;22;20251;-83
2023/05/20 03:55:28;;;;;;;1.13;0.73;;;18.50;78.40;;;;;;6306956;22;20189;-84
2023/05/20 03:57:59;;;;;;;0.87;0.67;;;18.50;78.30;;;;;;6302782;22;20852;-84
2023/05/20 04:00:30;;;;;;;2.03;1.27;;;18.50;78.30;;;;;;6303997;22;20161;-83
2023/05/20 04:02:59;;;;;;;1.27;1.17;;;18.50;78.80;;;;;;6303016;22;20215;-84
2023/05/20 04:05:27;;;;;;;2.20;1.37;;;18.50;78.80;;;;;;6303294;22;20166;-82
2023/05/20 04:07:57;;;;;;;0.87;0.87;;;18.50;78.80;;;;;;6303586;22;20169;-83
2023/05/20 04:10:26;;;;;;;1.67;1.43;;;18.50;78.90;;;;;;6279074;22;20213;-83
2023/05/20 04:12:54;;;;;;;3.00;1.30;;;18.50;78.80;;;;;;6272209;22;20189;-84
2023/05/20 04:15:24;;;;;;;1.57;1.47;;;18.60;78.70;;;;;;6272641;22;20248;-83
2023/05/20 04:17:53;;;;;;;2.43;1.50;;;18.60;78.60;;;;;;6270294;22;20170;-83
2023/05/20 04:20:23;;;;;;;1.20;0.83;;;18.60;78.50;;;;;;6272240;22;20166;-83
2023/05/20 04:22:52;;;;;;;1.30;0.73;;;18.60;78.40;;;;;;6271095;22;20196;-82
2023/05/20 04:25:21;;;;;;;4.20;1.93;;;18.70;78.40;;;;;;6266234;22;20197;-82
2023/05/20 04:27:49;;;;;;;1.70;1.60;;;18.70;78.50;;;;;;6270637;22;20180;-83
2023/05/20 04:30:20;;;;;;;3.73;2.80;;;18.70;78.90;;;;;;6274030;22;20166;-83
2023/05/20 04:32:50;;;;;;;3.67;1.70;;;18.70;79.70;;;;;;6274146;22;20160;-84
2023/05/20 04:35:19;;;;;;;2.13;1.73;;;18.70;79.70;;;;;;6273446;22;20165;-83
2023/05/20 04:37:47;;;;;;;2.10;1.97;;;18.80;79.50;;;;;;6273709;22;20166;-84
2023/05/20 04:40:17;;;;;;;4.03;2.70;;;18.80;79.50;;;;;;6273173;22;20170;-83
2023/05/20 04:42:46;;;;;;;11.13;1.73;;;18.70;79.60;;;;;;6273241;22;20229;-84
2023/05/20 04:45:14;;;;;;;5.90;2.80;;;18.80;80.40;;;;;;6271267;22;20224;-83
2023/05/20 04:47:44;;;;;;;3.33;1.93;;;18.80;80.60;;;;;;6246539;22;20174;-83
2023/05/20 04:50:15;;;;;;;4.33;2.03;;;18.90;80.70;;;;;;6274182;22;20246;-84
2023/05/20 04:52:44;;;;;;;2.33;1.30;;;19.00;81.00;;;;;;6272253;22;20588;-83
2023/05/20 04:55:14;;;;;;;3.17;1.13;;;19.00;81.00;;;;;;6243976;22;20196;-86
2023/05/20 04:57:43;;;;;;;2.93;1.23;;;19.10;80.90;;;;;;6272339;22;20726;-84
2023/05/20 05:00:12;;;;;;;2.47;1.27;;;19.20;80.90;;;;;;6271656;22;20165;-82
2023/05/20 05:02:41;;;;;;;0.97;0.90;;;19.30;80.70;;;;;;6274639;22;20276;-82
2023/05/20 05:05:10;;;;;;;2.70;1.80;;;19.30;80.40;;;;;;6273001;22;21019;-82
2023/05/20 05:07:39;;;;;;;2.73;0.87;;;19.40;80.40;;;;;;6272981;22;20196;-82
2023/05/20 05:10:09;;;;;;;1.67;1.23;;;19.50;80.00;;;;;;6272249;22;20165;-83
2023/05/20 05:12:37;;;;;;;1.43;1.17;;;19.60;79.90;;;;;;6273763;22;20169;-83
2023/05/20 05:15:07;;;;;;;1.07;0.93;;;19.70;79.80;;;;;;6271953;22;21068;-82
2023/05/20 05:17:35;;;;;;;2.87;1.37;;;19.80;79.70;;;;;;6271060;22;20196;-82
2023/05/20 05:20:04;;;;;;;2.10;1.50;;;19.90;79.40;;;;;;6272397;22;20165;-82
2023/05/20 05:22:35;;;;;;;1.40;1.30;;;20.00;79.20;;;;;;6269673;22;20185;-85
2023/05/20 05:25:06;;;;;;;3.90;1.57;;;20.10;78.80;;;;;;6274427;22;20153;-82
2023/05/20 05:27:35;;;;;;;2.13;1.33;;;20.30;78.30;;;;;;6271434;22;20185;-83
2023/05/20 05:30:04;;;;;;;2.75;1.83;;;20.40;78.20;;;;;;6270838;22;20193;-81
2023/05/20 05:32:33;;;;;;;1.53;1.43;;;20.40;78.00;;;;;;6270846;22;20539;-85
2023/05/20 05:35:01;;;;;;;4.03;2.10;;;20.50;77.80;;;;;;6271582;22;20170;-81
2023/05/20 05:37:29;;;;;;;4.07;1.20;;;20.50;76.90;;;;;;6272022;22;20169;-82
2023/05/20 05:40:00;;;;;;;2.00;1.20;;;20.70;77.10;;;;;;6271294;22;20154;-83
2023/05/20 05:42:30;;;;;;;2.33;1.00;;;20.80;77.10;;;;;;6270334;22;20194;-82
2023/05/20 05:44:58;;;;;;;2.05;1.38;;;20.80;76.90;;;;;;6271280;22;20172;-82
2023/05/20 05:47:31;;;;;;;4.30;2.00;;;21.00;76.80;;;;;;6271810;22;20166;-83
2023/05/20 05:50:00;;;;;;;3.75;1.40;;;21.10;76.70;;;;;;6269753;22;20150;-82
2023/05/20 05:52:28;;;;;;;4.28;1.52;;;21.10;76.60;;;;;;6271566;22;20227;-82
2023/05/20 05:54:57;;;;;;;1.70;1.13;;;21.20;76.40;;;;;;6272366;22;20252;-81
2023/05/20 05:57:25;;;;;;;4.22;1.05;;;21.30;76.20;;;;;;6268250;22;20193;-83
2023/05/20 05:59:55;;;;;;;2.38;1.33;;;21.40;75.90;;;;;;6271231;22;20166;-82
2023/05/20 06:02:23;;;;;;;2.55;1.25;;;21.50;75.90;;;;;;6269730;22;20165;-82
2023/05/20 06:04:52;;;;;;;1.20;1.10;;;21.50;75.40;;;;;;6269850;22;20165;-83
2023/05/20 06:07:20;;;;;;;4.32;1.67;;;21.70;75.50;;;;;;6272460;22;20505;-84
2023/05/20 06:09:49;;;;;;;3.63;1.40;;;21.70;75.40;;;;;;6272527;22;20170;-82
2023/05/20 06:12:20;;;;;;;1.25;1.10;;;21.80;75.30;;;;;;6273660;22;20170;-87
2023/05/20 06:14:49;;;;;;;3.88;1.65;;;21.80;75.30;;;;;;6271167;22;20169;-87
2023/05/20 06:17:23;;;;;;;2.40;1.42;;;21.90;75.20;;;;;;6274540;22;20322;-88
2023/05/20 06:20:10;;;;;;;3.20;0.98;;;21.90;75.00;;;;;;6274219;22;20601;-84
2023/05/20 06:22:40;;;;;;;3.83;1.67;;;22.00;74.90;;;;;;6273095;22;20154;-84
2023/05/20 06:25:10;;;;;;;2.20;1.30;;;22.10;74.70;;;;;;6272667;22;20176;-82
2023/05/20 06:27:39;;;;;;;2.80;1.45;;;22.20;74.40;;;;;;6272819;22;20170;-83
2023/05/20 06:37:08;;;;;;;3.40;1.13;;;22.40;74.50;;;;;;6279899;22;20201;-89
2023/05/20 06:39:46;;;;;;;1.65;1.33;;;22.50;74.40;;;;;;6271759;22;20703;-85
2023/05/20 06:45:35;;;;;;;1.65;1.55;;;22.50;74.10;;;;;;6257962;22;20615;-87
2023/05/20 06:48:03;;;;;;;1.58;1.15;;;22.60;73.80;;;;;;6243860;22;20181;-85
2023/05/20 06:50:32;;;;;;;2.00;1.50;;;22.60;74.00;;;;;;6269558;22;20212;-85
2023/05/20 06:53:03;;;;;;;2.15;1.85;;;22.70;73.50;;;;;;6244611;22;20925;-87
2023/05/20 06:55:31;;;;;;;2.40;1.52;;;22.70;73.50;;;;;;6267829;22;20276;-86
2023/05/20 06:58:00;;;;;;;1.67;1.40;;;22.80;73.50;;;;;;6245364;22;20468;-86
2023/05/20 07:00:38;;;;;;;2.08;1.55;;;22.90;73.50;;;;;;6272457;22;20177;-87
2023/05/20 07:03:07;;;;;;;1.30;1.20;;;23.00;73.60;;;;;;6272812;22;20188;-84
2023/05/20 07:05:36;;;;;;;2.90;1.90;;;23.00;73.20;;;;;;6270094;22;20170;-83
2023/05/20 07:08:07;;;;;;;2.95;1.67;;;23.10;73.00;;;;;;6271164;22;20268;-86
2023/05/20 07:10:35;;;;;;;3.15;1.52;;;23.20;72.50;;;;;;6274930;22;20161;-85
2023/05/20 07:13:04;;;;;;;3.72;1.42;;;23.20;72.50;;;;;;6272756;22;20173;-85
2023/05/20 07:15:32;;;;;;;3.08;1.80;;;23.20;72.30;;;;;;6273629;22;20165;-85
2023/05/20 07:18:02;;;;;;;1.30;0.90;;;23.30;72.40;;;;;;6272262;22;20205;-86
2023/05/20 07:20:31;;;;;;;4.05;2.35;;;23.30;72.90;;;;;;6273503;22;20249;-86
2023/05/20 07:22:59;;;;;;;1.42;1.27;;;23.30;72.50;;;;;;6273334;22;20166;-86
2023/05/20 07:25:29;;;;;;;1.70;1.38;;;23.40;72.50;;;;;;6274606;22;20177;-85
2023/05/20 07:27:59;;;;;;;3.20;1.65;;;23.40;72.30;;;;;;6275490;22;20611;-86
2023/05/20 07:30:28;;;;;;;3.65;1.38;;;23.40;71.80;;;;;;6274444;22;20162;-86
2023/05/20 07:32:57;;;;;;;0.82;0.70;;;23.50;71.80;;;;;;6275768;22;20168;-85
2023/05/20 07:35:25;;;;;;;1.70;1.23;;;23.60;71.60;;;;;;6273898;22;20166;-87
2023/05/20 07:37:54;;;;;;;3.22;1.63;;;23.60;71.50;;;;;;6276828;22;20189;-86
2023/05/20 07:40:22;;;;;;;6.22;1.25;;;23.70;71.00;;;;;;6274997;22;20208;-86
2023/05/20 07:42:52;;;;;;;3.22;1.45;;;23.70;71.30;;;;;;6276795;22;20260;-85
2023/05/20 07:45:20;;;;;;;3.63;1.63;;;23.80;70.30;;;;;;6274584;22;20491;-86
2023/05/20 07:47:49;;;;;;;3.10;1.40;;;23.80;69.90;;;;;;6276409;22;20173;-86
2023/05/20 07:50:17;;;;;;;1.38;1.20;;;23.90;70.00;;;;;;6274443;22;20177;-86
2023/05/20 07:52:45;;;;;;;1.58;1.17;;;23.90;69.90;;;;;;6275383;22;20245;-86
2023/05/20 07:55:24;;;;;;;3.20;2.10;;;24.00;69.90;;;;;;6275464;22;20185;-86
2023/05/20 07:57:54;;;;;;;2.55;1.63;;;24.10;69.70;;;;;;6275805;22;20172;-86
2023/05/20 08:00:22;;;;;;;2.03;1.55;;;24.10;68.70;;;;;;6275155;22;20166;-86
2023/05/20 08:02:51;;;;;;;12.38;1.58;;;24.10;68.70;;;;;;6277099;22;20162;-86
2023/05/20 08:05:21;;;;;;;1.25;0.93;;;24.10;68.20;;;;;;6274699;22;20194;-88
2023/05/20 08:07:49;;;;;;;3.42;1.45;;;24.10;68.00;;;;;;6274127;22;20491;-87
2023/05/20 08:10:18;;;;;;;3.33;1.63;;;24.10;68.30;;;;;;6274303;22;20660;-86
2023/05/20 08:12:47;;;;;;;1.35;0.95;;;24.10;67.50;;;;;;6274799;22;20168;-87
2023/05/20 08:15:17;;;;;;;2.15;1.67;;;24.20;67.90;;;;;;6274373;22;20173;-85
2023/05/20 08:17:45;;;;;;;2.17;1.52;;;24.30;68.00;;;;;;6274205;22;20556;-87
2023/05/20 08:20:14;;;;;;;3.63;2.10;;;24.30;67.30;;;;;;6274742;22;20169;-88
2023/05/20 08:22:42;;;;;;;1.27;1.17;;;24.40;67.60;;;;;;6276596;22;20170;-86
2023/05/20 08:25:11;;;;;;;2.42;1.17;;;24.50;67.60;;;;;;6274594;22;20288;-86
2023/05/20 08:27:40;;;;;;;0.88;0.70;;;24.60;67.70;;;;;;6275869;22;20249;-87
2023/05/20 08:30:10;;;;;;;3.17;1.45;;;24.70;67.70;;;;;;6273759;22;20240;-86
2023/05/20 08:32:40;;;;;;;3.47;2.08;;;24.80;67.70;;;;;;6275012;22;20166;-85
2023/05/20 08:35:09;;;;;;;2.47;1.90;;;24.90;67.80;;;;;;6274409;22;20161;-86
2023/05/20 08:37:37;;;;;;;3.08;1.75;;;25.00;67.70;;;;;;6273913;22;20207;-87
2023/05/20 08:40:08;;;;;;;2.33;1.05;;;25.10;67.50;;;;;;6272557;22;20565;-85
2023/05/20 08:42:40;;;;;;;2.67;1.83;;;25.20;66.90;;;;;;6276494;22;20471;-85
2023/05/20 08:45:12;;;;;;;0.65;0.65;;;25.20;66.30;;;;;;6274932;22;20188;-86
2023/05/20 08:47:43;;;;;;;2.70;1.55;;;25.30;64.80;;;;;;6275841;22;20587;-86
2023/05/20 08:50:13;;;;;;;2.75;1.67;;;25.30;64.50;;;;;;6273022;22;20158;-86
2023/05/20 08:52:44;;;;;;;1.85;0.90;;;25.40;64.90;;;;;;6274567;22;20166;-87
2023/05/20 08:55:16;;;;;;;2.55;1.15;;;25.50;65.20;;;;;;6273153;22;20254;-87
2023/05/20 08:57:46;;;;;;;2.78;1.30;;;25.60;65.30;;;;;;6275302;22;20178;-88
2023/05/20 09:00:15;;;;;;;2.45;0.85;;;25.60;64.70;;;;;;6272776;22;20172;-85
2023/05/20 09:02:47;;;;;;;1.13;1.00;;;25.60;65.10;;;;;;6273607;22;20173;-86
2023/05/20 09:05:15;;;;;;;1.55;1.38;;;25.70;65.30;;;;;;6274099;22;20190;-87
2023/05/20 09:07:44;;;;;;;2.17;1.65;;;25.70;65.50;;;;;;6276188;22;20505;-86
2023/05/20 09:10:13;;;;;;;1.58;1.30;;;25.70;64.70;;;;;;6274795;22;20162;-86
2023/05/20 09:12:41;;;;;;;1.17;1.08;;;25.70;64.00;;;;;;6277552;22;20165;-85
2023/05/20 09:15:10;;;;;;;1.63;1.30;;;25.80;63.80;;;;;;6279018;22;20174;-86
2023/05/20 09:17:38;;;;;;;2.53;1.17;;;25.80;63.90;;;;;;6274580;22;20603;-88
2023/05/20 09:20:10;;;;;;;1.42;1.25;;;25.90;63.80;;;;;;6274072;22;20512;-86
2023/05/20 09:22:39;;;;;;;1.35;1.25;;;25.90;63.50;;;;;;6274558;22;20150;-87
2023/05/20 09:25:11;;;;;;;1.63;1.02;;;25.90;63.50;;;;;;6270968;22;20651;-85
2023/05/20 09:27:40;;;;;;;1.27;1.00;;;25.90;63.60;;;;;;6274483;22;20158;-86
2023/05/20 09:30:11;;;;;;;4.38;2.28;;;26.00;63.90;;;;;;6273975;22;20252;-86
2023/05/20 09:32:40;;;;;;;2.85;1.13;;;26.00;63.40;;;;;;6275465;22;20164;-85
2023/05/20 09:35:14;;;;;;;0.93;0.80;;;26.00;63.40;;;;;;6274768;22;20177;-85
2023/05/20 09:37:43;;;;;;;0.93;0.80;;;26.10;63.90;;;;;;6285510;22;20200;-84
2023/05/20 09:40:16;;;;;;;1.10;0.93;;;26.10;63.80;;;;;;6288304;22;20162;-83
2023/05/20 09:42:51;;;;;;;2.63;1.65;;;26.10;63.30;;;;;;6295400;22;20185;-84
2023/05/20 09:45:20;;;;;;;1.65;1.00;;;26.20;62.00;;;;;;6289446;22;20209;-83
2023/05/20 09:47:52;;;;;;;0.65;0.63;;;26.20;61.50;;;;;;6290024;22;20174;-83
2023/05/20 09:50:24;;;;;;;1.20;0.80;;;26.20;61.40;;;;;;6283841;22;20239;-87
2023/05/20 09:52:54;;;;;;;5.55;2.28;;;26.20;61.70;;;;;;6275809;22;20161;-87
2023/05/20 09:55:25;;;;;;;1.58;0.90;;;26.20;60.80;;;;;;6275204;22;20169;-85
2023/05/20 09:57:54;;;;;;;7.25;2.00;;;26.40;61.40;;;;;;6276540;22;20223;-86
2023/05/20 10:00:24;;;;;;;2.50;2.03;;;26.40;61.90;;;;;;6247574;22;20686;-85
2023/05/20 10:02:53;;;;;;;1.42;1.15;;;26.40;61.60;;;;;;6275583;22;20228;-86
2023/05/20 10:05:28;;;;;;;2.22;1.80;;;26.50;62.00;;;;;;6275224;22;20249;-87
2023/05/20 10:08:18;;;;;;;0.70;0.70;;;26.50;60.80;;;;;;6276073;22;20161;-89
2023/05/20 10:10:50;;;;;;;4.20;1.33;;;26.50;59.70;;;;;;6247065;22;20158;-88
2023/05/20 10:13:28;;;;;;;0.70;0.70;;;26.60;59.80;;;;;;6269983;22;20161;-86
2023/05/20 10:16:04;;;;;;;2.13;1.40;;;26.70;59.60;;;;;;6269773;22;20686;-86
2023/05/20 10:18:43;;;;;;;4.28;1.40;;;26.80;58.10;;;;;;6271880;22;20204;-84
2023/05/20 10:21:18;;;;;;;1.77;1.27;;;26.80;58.10;;;;;;6272870;22;20157;-87
2023/05/20 10:23:46;;;;;;;5.10;1.08;;;26.90;58.60;;;;;;6274054;22;20172;-85
2023/05/20 10:26:14;;;;;;;1.65;1.40;;;26.90;58.40;;;;;;6270652;22;20197;-84
2023/05/20 10:28:43;;;;;;;2.00;1.27;;;26.90;58.20;;;;;;6273951;22;20611;-85
2023/05/20 10:31:20;;;;;;;1.27;1.02;;;27.00;58.70;;;;;;6272047;22;20170;-85
2023/05/20 10:33:49;;;;;;;1.23;1.13;;;27.00;58.80;;;;;;6271410;22;20244;-85
2023/05/20 10:36:27;;;;;;;5.53;2.33;;;27.20;59.00;;;;;;6270854;22;20197;-88
2023/05/20 10:38:57;;;;;;;1.13;1.02;;;27.10;58.00;;;;;;6271981;22;20158;-86
2023/05/20 10:41:27;;;;;;;1.10;1.00;;;27.30;58.00;;;;;;6271248;22;20180;-87
2023/05/20 10:44:03;;;;;;;2.28;1.15;;;27.40;57.60;;;;;;6271206;22;20158;-86
2023/05/20 10:46:32;;;;;;;1.20;0.98;;;27.40;57.60;;;;;;6267801;22;20204;-87
2023/05/20 10:49:21;;;;;;;2.55;1.30;;;27.50;57.50;;;;;;6272429;22;20176;-86
2023/05/20 10:51:56;;;;;;;2.10;1.90;;;27.50;56.80;;;;;;6271881;22;20193;-84
2023/05/20 10:54:25;;;;;;;2.15;1.38;;;27.60;55.50;;;;;;6270014;22;20195;-84
2023/05/20 10:56:54;;;;;;;2.65;1.40;;;27.70;56.20;;;;;;6270088;22;20168;-84
2023/05/20 10:59:23;;;;;;;2.15;1.40;;;27.70;56.60;;;;;;6269961;22;20166;-86
2023/05/20 11:01:51;;;;;;;4.28;1.30;;;27.80;56.70;;;;;;6270631;22;20181;-86
2023/05/20 11:04:20;;;;;;;2.47;0.82;;;27.80;55.90;;;;;;6270317;22;20606;-84
2023/05/20 11:06:54;;;;;;;3.60;1.20;;;27.90;56.00;;;;;;6270799;22;20286;-87
2023/05/20 11:09:24;;;;;;;3.72;1.38;;;27.90;55.90;;;;;;6273459;22;20236;-87
2023/05/20 11:11:54;;;;;;;1.95;1.38;;;27.90;54.70;;;;;;6267686;22;20897;-84
2023/05/20 11:14:23;;;;;;;1.05;0.95;;;27.70;53.90;;;;;;6271306;22;20169;-85
2023/05/20 11:16:53;;;;;;;1.98;1.23;;;27.70;53.40;;;;;;6272089;22;20257;-84
2023/05/20 11:19:22;;;;;;;1.27;0.90;;;27.70;53.70;;;;;;6271645;22;20631;-86
2023/05/20 11:21:51;;;;;;;2.75;1.25;;;27.70;53.10;;;;;;6272986;22;20197;-86
2023/05/20 11:24:27;;;;;;;2.42;1.05;;;27.80;53.60;;;;;;6267661;22;20174;-84
2023/05/20 11:26:56;;;;;;;2.17;1.17;;;27.90;53.40;;;;;;6269921;22;20671;-85
2023/05/20 11:29:27;;;;;;;3.28;1.08;;;28.00;53.10;;;;;;6270999;22;20173;-86
2023/05/20 11:31:56;;;;;;;3.08;1.42;;;28.10;52.80;;;;;;6271478;22;20478;-86
2023/05/20 11:34:24;;;;;;;4.95;1.60;;;28.10;52.50;;;;;;6268639;22;20158;-86
2023/05/20 11:36:57;;;;;;;2.00;1.20;;;28.20;52.60;;;;;;6270491;22;20204;-88
2023/05/20 11:39:32;;;;;;;1.40;1.08;;;28.30;51.50;;;;;;6245659;22;20272;-87
2023/05/20 11:42:01;;;;;;;6.00;1.08;;;28.40;51.30;;;;;;6273528;22;20605;-88
2023/05/20 11:44:30;;;;;;;1.83;1.05;;;28.30;51.50;;;;;;6272979;22;20165;-87
2023/05/20 11:47:01;;;;;;;1.13;0.98;;;28.30;52.10;;;;;;6272241;22;20200;-89
2023/05/20 11:49:30;;;;;;;1.65;1.08;;;28.20;51.00;;;;;;6272527;22;20166;-87
2023/05/20 11:52:03;;;;;;;2.38;1.35;;;28.00;50.00;;;;;;6272318;22;20250;-89
2023/05/20 11:54:36;;;;;;;8.18;2.08;;;28.00;50.60;;;;;;6274486;22;20189;-86
2023/05/20 11:57:04;;;;;;;3.72;1.25;;;28.00;50.70;;;;;;6273753;22;20643;-88
2023/05/20 11:59:35;;;;;;;2.20;1.45;;;28.10;51.10;;;;;;6273739;22;20572;-86
2023/05/20 12:02:03;;;;;;;2.10;1.00;;;28.10;50.70;;;;;;6271950;22;20193;-87
2023/05/20 12:04:32;;;;;;;1.30;0.90;;;28.20;51.20;;;;;;6272311;22;20170;-87
2023/05/20 12:07:09;;;;;;;1.58;1.13;;;28.20;50.20;;;;;;6247683;22;20714;-88
2023/05/20 12:09:39;;;;;;;1.48;0.93;;;28.20;49.80;;;;;;6246947;22;20165;-85
2023/05/20 12:12:10;;;;;;;2.20;1.42;;;28.30;50.10;;;;;;6273670;22;20165;-84
2023/05/20 12:14:38;;;;;;;4.45;1.50;;;28.40;48.60;;;;;;6245170;22;20287;-85
2023/05/20 12:17:06;;;;;;;1.98;1.42;;;28.40;48.00;;;;;;6271392;22;20493;-86
2023/05/20 12:19:35;;;;;;;1.35;0.85;;;28.40;48.20;;;;;;6272631;22;20630;-87
2023/05/20 12:22:06;;;;;;;1.15;1.02;;;28.50;48.90;;;;;;6283573;22;20158;-87
2023/05/20 12:24:36;;;;;;;3.15;1.92;;;28.50;48.60;;;;;;6289606;22;20226;-88
2023/05/20 12:27:07;;;;;;;1.20;0.95;;;28.60;49.00;;;;;;6283231;22;20245;-87
2023/05/20 12:29:36;;;;;;;0.70;0.70;;;28.70;49.30;;;;;;6275810;22;20166;-86
2023/05/20 12:32:07;;;;;;;4.38;0.90;;;28.80;49.10;;;;;;6276872;22;20162;-88
2023/05/20 12:34:35;;;;;;;1.08;0.77;;;28.80;49.10;;;;;;6273858;22;20484;-87
2023/05/20 12:37:04;;;;;;;0.98;0.93;;;28.90;49.40;;;;;;6275517;22;20194;-87
2023/05/20 12:39:32;;;;;;;4.22;1.52;;;29.00;48.60;;;;;;6274651;22;20193;-86
2023/05/20 12:42:01;;;;;;;1.98;1.20;;;29.00;47.80;;;;;;6275819;22;20177;-88
2023/05/20 12:44:31;;;;;;;0.70;0.60;;;29.10;47.50;;;;;;6275611;22;20177;-87
2023/05/20 12:47:02;;;;;;;1.20;1.10;;;29.20;47.30;;;;;;6275242;22;20198;-88
2023/05/20 12:49:31;;;;;;;0.73;0.55;;;29.20;47.50;;;;;;6273630;22;20162;-86
2023/05/20 12:51:59;;;;;;;2.17;1.17;;;29.20;46.10;;;;;;6274161;22;20209;-84
2023/05/20 12:54:35;;;;;;;1.80;1.17;;;29.20;45.20;;;;;;6273994;22;20169;-83
2023/05/20 12:57:04;;;;;;;2.60;0.93;;;29.10;45.40;;;;;;6272628;22;20170;-86
2023/05/20 12:59:36;;;;;;;1.50;1.38;;;29.10;46.00;;;;;;6273529;22;20158;-83
2023/05/20 13:02:05;;;;;;;11.45;1.35;;;29.20;46.80;;;;;;6274345;22;20170;-85
2023/05/20 13:04:33;;;;;;;0.73;0.73;;;29.30;47.40;;;;;;6274402;22;20194;-83
2023/05/20 13:07:01;;;;;;;2.78;1.48;;;29.20;47.30;;;;;;6274481;22;20197;-87
2023/05/20 13:09:31;;;;;;;1.00;0.85;;;29.10;48.10;;;;;;6272864;22;20503;-84